createdAt,value
2018-11-26T00:00:47.323Z,91.40
2018-11-26T00:03:16.010Z,92.00
2018-11-26T00:05:44.687Z,92.10
2018-11-26T00:08:13.963Z,91.30
2018-11-26T00:11:51.368Z,92.60
2018-11-26T00:14:20.422Z,91.20
2018-11-26T00:16:49.136Z,92.00
2018-11-26T00:19:18.144Z,91.80
2018-11-26T00:21:47.207Z,91.40
2018-11-26T00:24:16.197Z,92.20
2018-11-26T00:26:45.218Z,93.70
2018-11-26T00:29:13.886Z,96.00
2018-11-26T00:31:42.576Z,96.10
2018-11-26T00:34:11.338Z,96.50
2018-11-26T00:36:40.012Z,95.60
2018-11-26T00:39:09.790Z,96.10
2018-11-26T00:41:38.498Z,98.30
2018-11-26T00:44:07.465Z,97.80
2018-11-26T00:46:35.822Z,99.30
2018-11-26T00:49:04.532Z,99.90
2018-11-26T00:51:33.538Z,99.90
2018-11-26T00:54:02.256Z,99.90
2018-11-26T00:56:30.974Z,99.50
2018-11-26T00:58:59.918Z,98.60
2018-11-26T01:01:28.951Z,99.10
2018-11-26T01:03:57.987Z,98.90
2018-11-26T01:06:26.974Z,99.20
2018-11-26T01:08:55.329Z,99.70
2018-11-26T01:11:24.068Z,99.90
2018-11-26T01:13:52.494Z,98.70
2018-11-26T01:16:20.819Z,98.80
2018-11-26T01:18:49.894Z,98.10
2018-11-26T01:21:18.627Z,97.50
2018-11-26T01:23:48.820Z,97.60
2018-11-26T01:26:17.859Z,96.60
2018-11-26T01:28:46.595Z,95.20
2018-11-26T01:31:15.268Z,97.30
2018-11-26T01:33:44.030Z,96.40
2018-11-26T01:36:13.046Z,97.30
2018-11-26T01:38:41.718Z,96.90
2018-11-26T01:41:10.746Z,96.50
2018-11-26T01:43:39.381Z,97.10
2018-11-26T01:46:08.405Z,97.30
2018-11-26T01:48:37.414Z,96.60
2018-11-26T01:51:06.270Z,98.20
2018-11-26T01:53:35.030Z,98.20
2018-11-26T01:56:04.054Z,98.00
2018-11-26T01:58:33.070Z,97.90
2018-11-26T02:01:01.743Z,96.30
2018-11-26T02:03:30.461Z,96.90
2018-11-26T02:05:59.132Z,96.30
2018-11-26T02:08:27.514Z,98.20
2018-11-26T02:10:56.209Z,99.20
2018-11-26T02:13:25.954Z,99.70
2018-11-26T02:15:54.883Z,99.90
2018-11-26T02:18:24.001Z,99.90
2018-11-26T02:20:52.704Z,99.90
2018-11-26T02:23:21.756Z,97.90
2018-11-26T02:25:50.996Z,96.10
2018-11-26T02:28:19.426Z,95.10
2018-11-26T02:30:48.461Z,93.60
2018-11-26T02:33:17.491Z,92.60
2018-11-26T02:35:46.567Z,92.80
2018-11-26T02:38:15.610Z,92.20
2018-11-26T02:40:44.637Z,92.40
2018-11-26T02:43:13.369Z,93.40
2018-11-26T02:45:42.046Z,92.00
2018-11-26T02:48:11.072Z,92.60
2018-11-26T02:50:39.783Z,94.40
2018-11-26T02:53:09.520Z,95.90
2018-11-26T02:55:38.540Z,93.90
2018-11-26T02:58:06.930Z,94.10
2018-11-26T03:00:35.979Z,94.30
2018-11-26T03:03:04.880Z,94.20
2018-11-26T03:05:33.581Z,93.70
2018-11-26T03:08:02.254Z,94.50
2018-11-26T03:10:31.308Z,96.50
2018-11-26T03:13:00.027Z,95.00
2018-11-26T03:15:29.102Z,98.60
2018-11-26T03:17:57.779Z,99.90
2018-11-26T03:20:26.473Z,99.60
2018-11-26T03:22:55.173Z,98.60
2018-11-26T03:25:23.510Z,97.90
2018-11-26T03:27:52.651Z,99.30
2018-11-26T03:30:21.996Z,98.50
2018-11-26T03:32:50.899Z,97.40
2018-11-26T03:35:19.240Z,99.20
2018-11-26T03:37:47.615Z,99.00
2018-11-26T03:40:16.655Z,98.40
2018-11-26T03:42:45.710Z,97.10
2018-11-26T03:45:16.397Z,98.40
2018-11-26T03:47:45.416Z,98.40
2018-11-26T03:50:14.124Z,99.00
2018-11-26T03:52:44.345Z,98.70
2018-11-26T03:55:13.564Z,98.50
2018-11-26T03:57:42.275Z,99.40
2018-11-26T04:00:16.015Z,98.50
2018-11-26T04:02:44.408Z,97.50
2018-11-26T04:05:12.956Z,99.00
2018-11-26T04:07:41.811Z,98.00
2018-11-26T04:10:11.401Z,97.20
2018-11-26T04:12:39.808Z,98.80
2018-11-26T04:15:10.930Z,98.90
2018-11-26T04:17:39.666Z,99.60
2018-11-26T04:20:08.999Z,99.50
2018-11-26T04:22:37.855Z,99.50
2018-11-26T04:25:07.380Z,99.70
2018-11-26T04:27:36.617Z,99.90
2018-11-26T04:30:06.831Z,99.90
2018-11-26T04:32:35.885Z,99.30
2018-11-26T04:35:04.722Z,97.90
2018-11-26T04:37:33.783Z,98.60
2018-11-26T04:40:02.492Z,98.90
2018-11-26T04:42:31.538Z,97.50
2018-11-26T04:45:00.542Z,96.80
2018-11-26T04:47:29.626Z,95.50
2018-11-26T04:49:58.674Z,95.10
2018-11-26T04:52:27.735Z,93.50
2018-11-26T04:54:56.096Z,93.60
2018-11-26T04:57:24.801Z,94.30
2018-11-26T04:59:53.481Z,94.30
2018-11-26T05:02:22.540Z,92.50
2018-11-26T05:04:51.599Z,93.20
2018-11-26T05:07:20.678Z,91.30
2018-11-26T05:09:49.742Z,86.20
2018-11-26T05:12:18.771Z,84.20
2018-11-26T05:14:47.820Z,87.70
2018-11-26T05:17:16.826Z,86.20
2018-11-26T05:19:45.552Z,86.90
2018-11-26T05:22:14.258Z,87.00
2018-11-26T05:24:43.012Z,81.60
2018-11-26T05:27:12.070Z,80.40
2018-11-26T05:29:41.066Z,80.10
2018-11-26T05:32:10.172Z,80.10
2018-11-26T05:34:39.175Z,73.00
2018-11-26T05:37:08.203Z,73.90
2018-11-26T05:39:37.246Z,75.60
2018-11-26T05:42:05.871Z,80.30
2018-11-26T05:44:34.554Z,80.60
2018-11-26T05:47:03.222Z,84.20
2018-11-26T05:49:31.946Z,80.70
2018-11-26T05:52:00.992Z,82.60
2018-11-26T05:54:29.686Z,81.40
2018-11-26T05:56:58.377Z,82.60
2018-11-26T05:59:27.466Z,81.00
2018-11-26T06:01:56.219Z,82.60
2018-11-26T06:04:24.890Z,81.70
2018-11-26T06:06:54.043Z,86.50
2018-11-26T06:09:22.760Z,88.10
2018-11-26T06:11:51.770Z,90.10
2018-11-26T06:14:20.820Z,90.20
2018-11-26T06:16:53.788Z,90.10
2018-11-26T06:19:18.986Z,92.60
2018-11-26T06:21:47.756Z,91.50
2018-11-26T06:24:16.445Z,92.00
2018-11-26T06:26:45.205Z,92.30
2018-11-26T06:29:13.907Z,92.70
2018-11-26T06:31:42.943Z,92.10
2018-11-26T06:34:11.784Z,91.20
2018-11-26T06:36:40.871Z,91.20
2018-11-26T06:39:10.330Z,92.20
2018-11-26T06:41:39.377Z,94.00
2018-11-26T06:44:08.089Z,93.00
2018-11-26T06:46:37.228Z,93.60
2018-11-26T06:49:05.998Z,91.20
2018-11-26T06:51:35.027Z,91.00
2018-11-26T06:54:03.724Z,92.70
2018-11-26T06:56:32.755Z,90.90
2018-11-26T06:59:01.480Z,91.60
2018-11-26T07:01:30.493Z,90.30
2018-11-26T07:03:59.226Z,90.60
2018-11-26T07:06:27.931Z,91.60
2018-11-26T07:08:56.928Z,93.10
2018-11-26T07:11:25.687Z,94.00
2018-11-26T07:13:54.391Z,94.60
2018-11-26T07:16:22.792Z,93.00
2018-11-26T07:18:51.551Z,92.50
2018-11-26T07:21:19.905Z,92.00
2018-11-26T07:23:48.309Z,93.20
2018-11-26T07:26:17.029Z,94.00
2018-11-26T07:28:46.087Z,93.30
2018-11-26T07:31:15.134Z,92.90
2018-11-26T07:33:44.236Z,93.10
2018-11-26T07:36:13.401Z,93.10
2018-11-26T07:38:42.419Z,94.70
2018-11-26T07:41:10.874Z,95.30
2018-11-26T07:43:39.226Z,96.80
2018-11-26T07:46:08.279Z,96.40
2018-11-26T07:48:36.726Z,96.30
2018-11-26T07:51:05.491Z,94.60
2018-11-26T07:53:34.578Z,92.90
2018-11-26T07:56:03.477Z,91.80
2018-11-26T07:58:31.954Z,93.00
2018-11-26T08:01:01.006Z,92.30
2018-11-26T08:03:30.248Z,94.30
2018-11-26T08:05:59.269Z,92.20
2018-11-26T08:08:28.393Z,91.80
2018-11-26T08:10:57.420Z,93.90
2018-11-26T08:13:26.641Z,91.30
2018-11-26T08:15:55.685Z,90.50
2018-11-26T08:18:24.912Z,87.90
2018-11-26T08:20:53.987Z,85.00
2018-11-26T08:23:23.055Z,92.50
2018-11-26T08:25:51.809Z,92.20
2018-11-26T08:28:21.782Z,92.30
2018-11-26T08:30:51.302Z,92.70
2018-11-26T08:33:20.143Z,90.00
2018-11-26T08:35:48.962Z,91.20
2018-11-26T08:38:23.645Z,90.80
2018-11-26T08:40:58.651Z,91.90
2018-11-26T08:43:32.847Z,92.50
2018-11-26T08:46:05.843Z,88.90
2018-11-26T08:48:34.910Z,90.20
2018-11-26T08:51:03.313Z,91.00
2018-11-26T08:53:32.369Z,92.60
2018-11-26T08:56:00.695Z,91.10
2018-11-26T08:58:29.716Z,89.10
2018-11-26T09:01:03.477Z,85.70
2018-11-26T09:03:40.615Z,84.70
2018-11-26T09:06:09.378Z,81.50
2018-11-26T09:08:37.951Z,86.40
2018-11-26T09:11:08.176Z,81.70
2018-11-26T09:13:36.942Z,77.80
2018-11-26T09:16:05.414Z,80.90
2018-11-26T09:18:34.153Z,79.60
2018-11-26T09:21:02.519Z,72.90
2018-11-26T09:23:31.596Z,70.00
2018-11-26T09:26:00.326Z,68.60
2018-11-26T09:28:29.041Z,71.00
2018-11-26T09:30:57.799Z,69.10
2018-11-26T09:33:26.194Z,71.60
2018-11-26T09:35:54.931Z,71.20
2018-11-26T09:38:24.041Z,67.70
2018-11-26T09:40:52.770Z,62.80
2018-11-26T09:43:21.811Z,60.40
2018-11-26T09:45:50.846Z,61.90
2018-11-26T09:48:19.244Z,65.20
2018-11-26T09:50:48.271Z,66.40
2018-11-26T09:53:17.498Z,58.10
2018-11-26T09:55:46.250Z,62.90
2018-11-26T09:58:14.913Z,55.60
2018-11-26T10:00:43.626Z,54.30
2018-11-26T10:03:12.315Z,53.40
2018-11-26T10:05:41.398Z,57.10
2018-11-26T10:08:10.610Z,44.10
2018-11-26T10:10:39.646Z,42.40
2018-11-26T10:13:08.562Z,39.60
2018-11-26T10:15:37.603Z,43.40
2018-11-26T10:18:06.024Z,42.90
2018-11-26T10:20:35.067Z,47.10
2018-11-26T10:23:03.438Z,46.20
2018-11-26T10:25:32.450Z,41.90
2018-11-26T10:28:01.162Z,41.60
2018-11-26T10:30:29.543Z,44.90
2018-11-26T10:32:58.227Z,41.80
2018-11-26T10:35:26.930Z,44.30
2018-11-26T10:37:55.945Z,35.30
2018-11-26T10:40:26.696Z,38.30
2018-11-26T10:42:55.737Z,30.60
2018-11-26T10:45:24.828Z,26.40
2018-11-26T10:47:53.889Z,27.40
2018-11-26T10:50:24.635Z,25.50
2018-11-26T10:52:55.718Z,21.60
2018-11-26T10:55:29.337Z,21.70
2018-11-26T10:57:58.056Z,22.90
2018-11-26T11:00:32.637Z,24.90
2018-11-26T11:03:01.622Z,15.90
2018-11-26T11:05:30.482Z,11.60
2018-11-26T11:07:58.944Z,10.50
2018-11-26T11:10:29.700Z,7.30
2018-11-26T11:12:58.598Z,9.00
2018-11-26T11:15:27.335Z,1.50
2018-11-26T11:17:56.030Z,5.10
2018-11-26T11:20:26.267Z,6.30
2018-11-26T11:22:54.964Z,13.70
2018-11-26T11:25:23.863Z,8.30
2018-11-26T11:27:52.740Z,11.60
2018-11-26T11:30:24.892Z,1.00
2018-11-26T11:32:53.950Z,1.00
2018-11-26T11:35:22.728Z,1.00
2018-11-26T11:37:52.289Z,2.20
2018-11-26T11:40:26.745Z,1.00
2018-11-26T11:42:56.107Z,1.00
2018-11-26T11:45:25.015Z,1.00
2018-11-26T11:47:53.431Z,1.00
2018-11-26T11:50:22.160Z,1.00
2018-11-26T11:52:50.893Z,1.00
2018-11-26T11:55:25.515Z,1.00
2018-11-26T11:57:53.915Z,1.00
2018-11-26T12:00:46.559Z,2.60
2018-11-26T12:03:19.660Z,2.90
2018-11-26T12:05:48.247Z,2.10
2018-11-26T12:08:16.963Z,4.00
2018-11-26T12:10:45.677Z,6.40
2018-11-26T12:13:14.841Z,6.60
2018-11-26T12:15:46.462Z,5.70
2018-11-26T12:18:15.688Z,7.30
2018-11-26T12:20:44.578Z,10.00
2018-11-26T12:23:13.310Z,9.90
2018-11-26T12:25:41.682Z,14.30
2018-11-26T12:28:10.375Z,10.00
2018-11-26T12:30:40.788Z,7.00
2018-11-26T12:33:10.581Z,8.80
2018-11-26T12:35:39.335Z,13.50
2018-11-26T12:38:08.064Z,1.00
2018-11-26T12:40:43.844Z,1.00
2018-11-26T12:43:12.909Z,1.00
2018-11-26T12:45:41.904Z,1.00
2018-11-26T12:48:10.261Z,1.00
2018-11-26T12:50:38.616Z,1.00
2018-11-26T12:53:07.366Z,1.00
2018-11-26T12:55:37.737Z,1.00
2018-11-26T12:58:07.272Z,1.00
2018-11-26T13:00:37.103Z,1.00
2018-11-26T13:03:08.751Z,1.00
2018-11-26T13:05:37.131Z,1.00
2018-11-26T13:08:06.260Z,1.00
2018-11-26T13:10:35.316Z,1.00
2018-11-26T13:13:04.072Z,1.00
2018-11-26T13:15:33.125Z,1.00
2018-11-26T13:18:01.820Z,1.00
2018-11-26T13:20:31.123Z,1.00
2018-11-26T13:23:00.188Z,1.00
2018-11-26T13:25:30.192Z,1.00
2018-11-26T13:28:00.071Z,1.00
2018-11-26T13:30:34.031Z,1.00
2018-11-26T13:33:03.859Z,1.00
2018-11-26T13:35:32.916Z,1.00
2018-11-26T13:38:01.281Z,1.00
2018-11-26T13:40:30.324Z,1.00
2018-11-26T13:42:59.027Z,1.00
2018-11-26T13:45:29.652Z,1.00
2018-11-26T13:47:58.003Z,1.00
2018-11-26T13:50:28.222Z,1.00
2018-11-26T13:52:57.631Z,1.00
2018-11-26T13:55:26.314Z,1.00
2018-11-26T13:57:55.382Z,1.00
2018-11-26T14:00:23.759Z,1.00
2018-11-26T14:02:52.448Z,1.00
2018-11-26T14:05:21.139Z,1.00
2018-11-26T14:07:49.647Z,1.00
2018-11-26T14:10:24.457Z,1.00
2018-11-26T14:13:12.072Z,1.00
2018-11-26T14:15:40.868Z,1.00
2018-11-26T14:18:09.884Z,1.00
2018-11-26T14:20:38.634Z,1.00
2018-11-26T14:23:07.844Z,1.00
2018-11-26T14:25:36.553Z,1.00
2018-11-26T14:28:06.242Z,1.00
2018-11-26T14:30:34.072Z,1.00
2018-11-26T14:33:03.146Z,1.00
2018-11-26T14:35:32.263Z,1.00
2018-11-26T14:38:03.791Z,1.00
2018-11-26T14:40:51.296Z,1.00
2018-11-26T14:43:20.383Z,1.00
2018-11-26T14:45:49.223Z,1.00
2018-11-26T14:48:17.964Z,1.00
2018-11-26T14:50:46.980Z,1.00
2018-11-26T14:53:17.016Z,1.00
2018-11-26T14:55:46.080Z,1.00
2018-11-26T14:58:15.120Z,1.00
2018-11-26T15:00:43.940Z,2.20
2018-11-26T15:03:13.186Z,7.60
2018-11-26T15:05:42.883Z,3.80
2018-11-26T15:08:11.300Z,1.00
2018-11-26T15:10:40.341Z,1.00
2018-11-26T15:13:09.122Z,1.00
2018-11-26T15:15:37.896Z,1.00
2018-11-26T15:18:06.334Z,1.40
2018-11-26T15:20:34.697Z,2.40
2018-11-26T15:23:03.416Z,2.70
2018-11-26T15:25:33.776Z,1.30
2018-11-26T15:28:08.043Z,4.50
2018-11-26T15:30:36.490Z,7.30
2018-11-26T15:33:05.082Z,2.70
2018-11-26T15:35:34.093Z,1.00
2018-11-26T15:38:03.135Z,1.00
2018-11-26T15:40:31.977Z,1.00
2018-11-26T15:43:00.717Z,1.00
2018-11-26T15:45:29.849Z,1.00
2018-11-26T15:48:01.308Z,1.00
2018-11-26T15:50:30.359Z,1.00
2018-11-26T15:52:59.114Z,1.00
2018-11-26T15:55:28.179Z,1.00
2018-11-26T15:57:56.885Z,1.00
2018-11-26T16:00:26.217Z,1.00
2018-11-26T16:02:54.797Z,1.00
2018-11-26T16:05:25.313Z,1.00
2018-11-26T16:07:55.259Z,1.00
2018-11-26T16:10:24.323Z,1.00
2018-11-26T16:12:55.999Z,1.00
2018-11-26T16:15:28.638Z,1.00
2018-11-26T16:17:58.926Z,1.00
2018-11-26T16:20:27.704Z,1.00
2018-11-26T16:22:57.045Z,1.00
2018-11-26T16:25:26.072Z,1.00
2018-11-26T16:27:55.546Z,1.00
2018-11-26T16:30:24.273Z,1.00
2018-11-26T16:32:54.014Z,1.00
2018-11-26T16:35:26.095Z,1.00
2018-11-26T16:37:54.880Z,1.00
2018-11-26T16:40:23.593Z,1.00
2018-11-26T16:42:52.331Z,1.00
2018-11-26T16:45:25.120Z,1.00
2018-11-26T16:47:55.214Z,1.00
2018-11-26T16:50:24.943Z,1.00
2018-11-26T16:52:54.053Z,1.00
2018-11-26T16:55:22.479Z,1.00
2018-11-26T16:57:50.915Z,1.00
2018-11-26T17:00:29.225Z,1.00
2018-11-26T17:02:58.881Z,1.00
2018-11-26T17:05:31.081Z,1.00
2018-11-26T17:08:00.128Z,1.00
2018-11-26T17:10:28.838Z,1.00
2018-11-26T17:12:57.895Z,1.00
2018-11-26T17:15:26.392Z,1.00
2018-11-26T17:17:55.432Z,1.00
2018-11-26T17:20:24.240Z,1.00
2018-11-26T17:22:53.292Z,1.00
2018-11-26T17:25:22.012Z,1.00
2018-11-26T17:27:50.758Z,1.00
2018-11-26T17:30:23.157Z,1.00
2018-11-26T17:32:56.436Z,1.00
2018-11-26T17:35:24.826Z,1.00
2018-11-26T17:37:53.551Z,1.00
2018-11-26T17:40:22.948Z,1.00
2018-11-26T17:42:51.728Z,1.00
2018-11-26T17:45:20.822Z,1.00
2018-11-26T17:47:50.699Z,1.00
2018-11-26T17:50:30.130Z,1.00
2018-11-26T17:52:58.673Z,1.00
2018-11-26T17:55:27.874Z,1.00
2018-11-26T17:57:57.288Z,1.00
2018-11-26T18:00:27.741Z,1.00
2018-11-26T18:02:56.779Z,1.00
2018-11-26T18:05:26.690Z,1.00
2018-11-26T18:07:58.410Z,1.00
2018-11-26T18:10:27.503Z,1.00
2018-11-26T18:12:56.596Z,1.00
2018-11-26T18:15:24.979Z,1.00
2018-11-26T18:17:54.124Z,1.00
2018-11-26T18:20:23.142Z,1.00
2018-11-26T18:22:52.877Z,1.00
2018-11-26T18:25:21.739Z,1.00
2018-11-26T18:27:53.650Z,1.00
2018-11-26T18:30:30.372Z,1.00
2018-11-26T18:32:59.503Z,1.00
2018-11-26T18:35:28.314Z,1.00
2018-11-26T18:37:57.291Z,1.00
2018-11-26T18:40:25.824Z,1.00
2018-11-26T18:42:54.913Z,1.00
2018-11-26T18:45:23.345Z,99.90
2018-11-26T18:47:52.395Z,99.90
2018-11-26T18:50:22.063Z,99.90
2018-11-26T18:52:51.708Z,99.90
2018-11-26T18:55:20.946Z,99.90
2018-11-26T18:57:50.042Z,99.90
2018-11-26T19:00:24.025Z,99.90
2018-11-26T19:02:53.206Z,99.90
2018-11-26T19:05:22.086Z,99.90
2018-11-26T19:07:51.122Z,98.10
2018-11-26T19:10:22.778Z,99.90
2018-11-26T19:13:25.552Z,74.20
2018-11-26T19:15:58.117Z,75.70
2018-11-26T19:18:27.002Z,86.30
2018-11-26T19:20:55.704Z,24.30
2018-11-26T19:23:24.633Z,17.80
2018-11-26T19:25:53.926Z,1.00
2018-11-26T19:28:22.944Z,1.00
2018-11-26T19:30:52.025Z,60.30
2018-11-26T19:33:21.103Z,1.00
2018-11-26T19:35:50.161Z,1.00
2018-11-26T19:38:19.191Z,1.00
2018-11-26T19:40:47.943Z,42.60
2018-11-26T19:43:16.686Z,99.90
2018-11-26T19:45:45.439Z,36.80
2018-11-26T19:48:14.360Z,99.90
2018-11-26T19:50:43.581Z,99.00
2018-11-26T19:53:13.067Z,99.90
2018-11-26T19:55:43.195Z,99.90
2018-11-26T19:58:11.915Z,99.90
2018-11-26T20:00:40.588Z,99.90
2018-11-26T20:03:23.546Z,99.90
2018-11-26T20:05:58.550Z,99.90
2018-11-26T20:08:27.730Z,99.90
2018-11-26T20:10:56.785Z,99.90
2018-11-26T20:13:25.912Z,99.90
2018-11-26T20:15:54.953Z,99.90
2018-11-26T20:18:28.495Z,1.00
2018-11-26T20:20:53.351Z,1.00
2018-11-26T20:23:22.176Z,1.00
2018-11-26T20:25:50.608Z,1.00
2018-11-26T20:28:19.667Z,1.00
2018-11-26T20:30:48.743Z,1.00
2018-11-26T20:33:18.017Z,1.00
2018-11-26T20:35:47.201Z,2.10
2018-11-26T20:38:16.161Z,1.00
2018-11-26T20:40:45.767Z,6.40
2018-11-26T20:43:15.496Z,13.80
2018-11-26T20:45:46.759Z,11.40
2018-11-26T20:48:15.658Z,10.10
2018-11-26T20:50:47.582Z,12.00
2018-11-26T20:53:17.127Z,13.10
2018-11-26T20:55:45.950Z,13.70
2018-11-26T20:58:14.949Z,22.60
2018-11-26T21:00:43.958Z,24.10
2018-11-26T21:03:13.381Z,23.00
2018-11-26T21:05:43.703Z,26.60
2018-11-26T21:08:12.441Z,26.30
2018-11-26T21:10:41.165Z,26.00
2018-11-26T21:13:10.675Z,21.00
2018-11-26T21:15:39.334Z,20.50
2018-11-26T21:18:09.590Z,22.40
2018-11-26T21:20:41.941Z,24.10
2018-11-26T21:23:12.837Z,25.50
2018-11-26T21:25:41.607Z,33.80
2018-11-26T21:28:11.082Z,32.40
2018-11-26T21:30:40.244Z,33.50
2018-11-26T21:33:08.709Z,35.40
2018-11-26T21:35:38.081Z,31.60
2018-11-26T21:38:08.437Z,29.40
2018-11-26T21:40:38.105Z,32.40
2018-11-26T21:43:07.188Z,38.30
2018-11-26T21:45:41.197Z,35.60
2018-11-26T21:48:10.275Z,35.10
2018-11-26T21:50:39.062Z,36.20
2018-11-26T21:53:08.345Z,39.60
2018-11-26T21:55:37.556Z,40.50
2018-11-26T21:58:06.251Z,37.70
2018-11-26T22:00:35.923Z,38.90
2018-11-26T22:03:11.899Z,38.00
2018-11-26T22:05:41.730Z,40.70
2018-11-26T22:08:10.805Z,39.40
2018-11-26T22:10:42.289Z,46.20
2018-11-26T22:13:12.916Z,44.70
2018-11-26T22:15:41.613Z,47.00
2018-11-26T22:18:10.903Z,49.50
2018-11-26T22:20:39.565Z,49.40
2018-11-26T22:23:08.647Z,48.70
2018-11-26T22:25:37.836Z,47.40
2018-11-26T22:28:10.129Z,49.10
2018-11-26T22:30:39.392Z,49.80
2018-11-26T22:33:09.067Z,49.30
2018-11-26T22:35:37.181Z,50.30
2018-11-26T22:38:05.965Z,48.60
2018-11-26T22:40:34.952Z,53.80
2018-11-26T22:43:03.680Z,53.30
2018-11-26T22:45:34.030Z,55.70
2018-11-26T22:48:07.445Z,58.30
2018-11-26T22:50:37.492Z,55.90
2018-11-26T22:53:07.414Z,58.50
2018-11-26T22:55:35.978Z,60.70
2018-11-26T22:58:05.245Z,60.00
2018-11-26T23:00:41.116Z,60.80
2018-11-26T23:03:10.600Z,58.70
2018-11-26T23:05:39.301Z,58.30
2018-11-26T23:08:07.997Z,55.80
2018-11-26T23:10:36.557Z,60.40
2018-11-26T23:13:05.510Z,57.70
2018-11-26T23:15:34.555Z,63.70
2018-11-26T23:18:03.422Z,61.30
2018-11-26T23:20:32.112Z,59.90
2018-11-26T23:23:01.332Z,62.50
2018-11-26T23:25:30.535Z,62.20
2018-11-26T23:27:59.192Z,62.10
2018-11-26T23:30:29.351Z,64.70
2018-11-26T23:33:00.493Z,65.90
2018-11-26T23:35:29.054Z,65.70
2018-11-26T23:37:57.584Z,64.50
2018-11-26T23:40:26.352Z,68.20
2018-11-26T23:42:54.858Z,72.00
2018-11-26T23:45:24.156Z,69.40
2018-11-26T23:47:52.933Z,71.10
2018-11-26T23:50:21.342Z,72.40
2018-11-26T23:52:50.164Z,71.50
2018-11-26T23:55:19.888Z,73.30
2018-11-26T23:57:48.677Z,73.00
